Time;durP1;ratioP1;P1;durP2;ratioP2;P2;SDS_P1;SDS_P2;PMS_P1;PMS_P2;Temp;Humidity;BMP_temperature;BMP_pressure;BME280_temperature;BME280_humidity;BME280_pressure;Samples;Min_cycle;Max_cycle;Signal;HPM_P1;HPM_P2
2022/08/27 00:00:50;;;;;;;9.10;4.43;;;;;;;20.50;90.78;100704.44;4976297;28;20064;-81
2022/08/27 00:03:19;;;;;;;9.88;3.88;;;;;;;20.50;90.79;100709.75;4998846;28;20055;-81
2022/08/27 00:05:47;;;;;;;10.00;3.47;;;;;;;20.49;90.40;100702.72;4989732;28;20046;-81
2022/08/27 00:08:14;;;;;;;6.97;3.38;;;;;;;20.49;90.60;100700.06;4987688;28;20046;-82
2022/08/27 00:10:41;;;;;;;12.85;3.60;;;;;;;20.49;90.66;100706.25;4987792;28;20061;-81
2022/08/27 00:13:08;;;;;;;9.27;3.97;;;;;;;20.46;90.72;100686.91;4989058;28;20137;-81
2022/08/27 00:15:37;;;;;;;8.32;3.83;;;;;;;20.46;90.77;100692.25;5002996;28;20042;-83
2022/08/27 00:18:08;;;;;;;7.40;3.95;;;;;;;20.42;90.91;100696.84;4994638;28;20126;-82
2022/08/27 00:20:34;;;;;;;13.68;3.80;;;;;;;20.39;91.01;100704.09;4990169;28;20504;-82
2022/08/27 00:23:01;;;;;;;11.77;3.83;;;;;;;20.38;91.00;100683.78;4991799;28;20062;-81
2022/08/27 00:25:29;;;;;;;9.70;4.50;;;;;;;20.36;91.11;100693.63;5009195;28;20041;-81
2022/08/27 00:27:56;;;;;;;9.48;4.50;;;;;;;20.35;90.99;100691.91;4977949;28;20113;-80
2022/08/27 00:30:27;;;;;;;14.88;4.45;;;;;;;20.36;90.85;100694.47;4989860;28;20058;-80
2022/08/27 00:32:59;;;;;;;10.10;4.20;;;;;;;20.32;90.74;100683.16;4991932;28;20046;-83
2022/08/27 00:35:30;;;;;;;7.13;3.63;;;;;;;20.26;90.99;100685.22;4996800;28;20061;-85
2022/08/27 00:37:57;;;;;;;10.27;3.95;;;;;;;20.27;90.76;100678.97;5023878;28;20037;-80
2022/08/27 00:40:26;;;;;;;13.73;4.20;;;;;;;20.22;90.80;100676.56;5008588;28;20078;-80
2022/08/27 00:42:55;;;;;;;9.52;3.60;;;;;;;20.23;90.85;100675.59;5012190;28;20043;-81
2022/08/27 00:45:24;;;;;;;8.38;3.45;;;;;;;20.21;91.03;100676.63;5027581;28;20046;-81
2022/08/27 00:47:58;;;;;;;10.68;3.85;;;;;;;20.21;91.10;100687.25;4996283;28;20050;-82
2022/08/27 00:50:41;;;;;;;13.23;4.13;;;;;;;20.21;91.00;100688.13;4985561;28;20164;-81
2022/08/27 00:53:14;;;;;;;8.20;3.65;;;;;;;20.22;90.90;100687.19;4982973;28;20057;-80
2022/08/27 00:55:47;;;;;;;6.63;3.83;;;;;;;20.27;90.48;100694.94;4987033;28;21333;-80
2022/08/27 00:58:21;;;;;;;7.95;3.65;;;;;;;20.29;90.38;100693.91;4991534;28;20129;-79
2022/08/27 01:00:49;;;;;;;6.68;3.15;;;;;;;20.33;89.77;100695.50;5005727;28;20367;-82
2022/08/27 01:03:16;;;;;;;6.75;3.42;;;;;;;20.28;90.15;100694.00;4977147;28;20112;-82
2022/08/27 01:05:48;;;;;;;6.88;3.45;;;;;;;20.20;90.78;100690.88;4988380;28;20054;-80
2022/08/27 01:08:20;;;;;;;9.77;3.88;;;;;;;20.16;90.93;100687.50;4986792;28;20050;-82
2022/08/27 01:10:50;;;;;;;6.60;3.60;;;;;;;20.12;90.98;100691.25;4977627;28;20046;-81
2022/08/27 01:13:23;;;;;;;6.57;3.97;;;;;;;20.08;91.10;100687.84;4963174;28;20524;-79
2022/08/27 01:15:50;;;;;;;;;;;;;;;20.06;91.60;100691.53;4982107;28;20200;-81
2022/08/27 01:18:17;;;;;;;10.15;3.70;;;;;;;20.05;91.07;100698.66;4981873;28;19953;-82
2022/08/27 01:21:10;;;;;;;5.47;3.35;;;;;;;20.07;90.97;100703.88;4989221;28;20057;-81
2022/08/27 01:23:49;;;;;;;7.68;3.80;;;;;;;20.06;91.08;100708.31;4981847;28;20197;-80
2022/08/27 01:26:19;;;;;;;8.73;3.47;;;;;;;20.06;90.82;100712.78;4967184;28;20133;-80
2022/08/27 01:28:51;;;;;;;7.78;2.97;;;;;;;20.07;90.66;100707.38;4948303;28;20482;-81
2022/08/27 01:31:22;;;;;;;7.20;3.50;;;;;;;20.08;90.49;100705.63;4964910;28;20054;-82
2022/08/27 01:34:03;;;;;;;5.60;3.50;;;;;;;20.07;90.47;100714.50;4980964;28;20360;-82
2022/08/27 01:36:33;;;;;;;8.85;3.65;;;;;;;20.05;90.40;100713.72;4983684;28;20070;-82
2022/08/27 01:39:04;;;;;;;8.50;3.28;;;;;;;20.05;90.46;100724.34;4967536;28;20661;-81
2022/08/27 01:41:30;;;;;;;12.25;3.58;;;;;;;20.02;90.28;100720.03;4965194;28;20565;-80
2022/08/27 01:44:06;;;;;;;4.30;3.30;;;;;;;19.97;90.46;100714.97;5002868;28;20054;-83
2022/08/27 01:46:35;;;;;;;9.68;3.45;;;;;;;19.99;90.58;100715.72;5003544;28;20049;-82
2022/08/27 01:49:02;;;;;;;6.38;3.30;;;;;;;20.02;90.12;100720.03;4969099;28;20145;-83
2022/08/27 01:51:30;;;;;;;7.97;4.00;;;;;;;20.02;90.54;100721.84;4986435;28;20081;-80
2022/08/27 01:53:58;;;;;;;12.48;4.22;;;;;;;20.02;90.05;100711.22;4982435;28;20042;-82
2022/08/27 01:56:27;;;;;;;7.38;3.75;;;;;;;19.98;90.15;100721.13;4991658;28;20038;-80
2022/08/27 01:58:54;;;;;;;6.60;4.32;;;;;;;19.92;90.83;100722.28;4986290;28;20042;-82
2022/08/27 02:01:24;;;;;;;8.65;4.47;;;;;;;19.91;91.24;100728.53;4987926;28;20576;-81
2022/08/27 02:03:50;;;;;;;8.77;4.68;;;;;;;19.83;91.77;100731.53;4993221;28;20055;-83
2022/08/27 02:06:18;;;;;;;7.00;4.07;;;;;;;19.83;91.63;100734.19;4989690;28;20062;-81
2022/08/27 02:08:46;;;;;;;7.72;4.95;;;;;;;19.80;92.15;100741.41;4957311;28;20517;-81
2022/08/27 02:11:13;;;;;;;7.30;5.07;;;;;;;19.76;92.59;100745.13;4990168;28;20049;-82
2022/08/27 02:13:41;;;;;;;9.32;4.43;;;;;;;19.72;92.77;100739.09;5005348;28;20130;-82
2022/08/27 02:16:08;;;;;;;11.20;5.00;;;;;;;19.74;92.74;100745.22;4989929;28;20061;-82
2022/08/27 02:18:37;;;;;;;11.13;5.20;;;;;;;19.74;92.85;100728.44;5003513;28;20054;-82
2022/08/27 02:21:04;;;;;;;8.70;4.72;;;;;;;19.70;92.92;100732.13;4989083;28;20043;-82
2022/08/27 02:23:36;;;;;;;8.65;4.93;;;;;;;19.69;93.58;100741.06;5002334;28;20050;-81
2022/08/27 02:26:03;;;;;;;10.60;5.03;;;;;;;19.62;93.66;100740.44;4982215;28;20140;-81
2022/08/27 02:28:30;;;;;;;6.15;4.28;;;;;;;19.61;93.90;100741.41;4949063;28;20054;-82
2022/08/27 02:31:00;;;;;;;7.13;5.13;;;;;;;19.62;93.93;100738.66;4961597;28;20096;-82
2022/08/27 02:33:27;;;;;;;5.18;4.47;;;;;;;19.67;93.66;100749.06;4971224;28;20088;-82
2022/08/27 02:35:54;;;;;;;10.05;5.15;;;;;;;19.68;93.54;100740.16;4984421;28;20042;-81
2022/08/27 02:38:20;;;;;;;10.38;5.05;;;;;;;19.69;93.84;100743.72;4982509;28;20041;-82
2022/08/27 02:40:50;;;;;;;9.32;5.15;;;;;;;19.69;93.53;100741.06;4997881;28;20054;-82
2022/08/27 02:43:17;;;;;;;9.82;4.80;;;;;;;19.64;93.37;100744.75;4999698;28;20073;-82
2022/08/27 02:45:47;;;;;;;8.63;5.32;;;;;;;19.65;93.57;100749.13;4986515;28;20080;-81
2022/08/27 02:48:15;;;;;;;15.82;6.20;;;;;;;19.64;93.82;100746.56;4985781;28;20551;-82
2022/08/27 02:50:44;;;;;;;9.18;5.43;;;;;;;19.66;93.53;100742.06;4994357;28;20054;-82
2022/08/27 02:53:12;;;;;;;15.13;6.18;;;;;;;19.63;93.52;100750.13;4983817;28;20050;-81
2022/08/27 02:55:39;;;;;;;6.10;4.03;;;;;;;19.65;93.54;100753.59;4990345;28;20034;-81
2022/08/27 02:58:06;;;;;;;10.90;5.00;;;;;;;19.64;93.53;100751.88;5001057;28;20119;-82
2022/08/27 03:00:32;;;;;;;12.00;5.03;;;;;;;19.61;93.40;100752.88;4960187;28;20378;-80
2022/08/27 03:02:59;;;;;;;14.07;5.35;;;;;;;19.60;93.59;100759.09;5006804;28;20039;-81
2022/08/27 03:05:26;;;;;;;8.40;5.15;;;;;;;19.62;93.33;100751.94;4988148;28;20046;-83
2022/08/27 03:07:53;;;;;;;8.68;4.57;;;;;;;19.64;92.79;100750.06;4989879;28;20441;-82
2022/08/27 03:10:21;;;;;;;7.75;4.35;;;;;;;19.64;92.68;100744.75;4986922;28;20381;-82
2022/08/27 03:12:50;;;;;;;13.50;5.80;;;;;;;19.61;92.60;100749.38;4991359;28;20043;-82
2022/08/27 03:15:20;;;;;;;10.98;4.38;;;;;;;19.54;93.06;100742.59;4972296;28;20053;-79
2022/08/27 03:20:33;;;;;;;7.20;3.80;;;;;;;19.51;92.84;100741.78;5010279;28;20136;-82
2022/08/27 03:23:01;;;;;;;8.50;3.22;;;;;;;19.48;92.93;100739.28;5004982;28;20826;-81
2022/08/27 03:25:28;;;;;;;8.25;3.60;;;;;;;19.46;93.02;100742.94;5009122;28;20037;-82
2022/08/27 03:27:55;;;;;;;5.95;3.80;;;;;;;19.48;93.09;100739.28;4990123;28;20061;-81
2022/08/27 03:30:25;;;;;;;8.15;3.70;;;;;;;19.46;92.74;100735.84;5000698;28;20077;-83
2022/08/27 03:32:54;;;;;;;11.02;3.88;;;;;;;19.44;92.74;100732.38;4998585;28;20066;-81
2022/08/27 03:35:24;;;;;;;8.80;3.63;;;;;;;19.45;92.50;100726.16;4986762;28;20104;-81
2022/08/27 03:37:51;;;;;;;4.85;3.05;;;;;;;19.45;92.07;100727.94;4986924;28;20052;-82
2022/08/27 03:40:19;;;;;;;7.70;3.30;;;;;;;19.45;92.27;100725.28;5000180;28;20058;-81
2022/08/27 03:42:46;;;;;;;3.78;2.55;;;;;;;19.45;92.20;100734.13;4968311;28;20065;-83
2022/08/27 03:45:15;;;;;;;7.65;3.45;;;;;;;19.44;91.81;100727.06;4985975;28;20097;-81
2022/08/27 03:47:42;;;;;;;5.00;2.97;;;;;;;19.42;91.88;100728.06;4984675;28;20046;-80
2022/08/27 03:50:10;;;;;;;6.82;3.17;;;;;;;19.39;91.90;100729.06;4980466;28;20042;-79
2022/08/27 03:52:38;;;;;;;9.05;3.42;;;;;;;19.36;92.15;100721.25;4976378;28;20050;-81
2022/08/27 03:55:07;;;;;;;10.25;3.13;;;;;;;19.33;91.90;100724.03;4961685;28;20132;-80
2022/08/27 03:57:34;;;;;;;7.30;3.60;;;;;;;19.30;92.17;100717.06;4984748;28;20081;-80
2022/08/27 04:00:02;;;;;;;6.13;2.20;;;;;;;19.32;91.97;100723.19;4992974;28;20077;-82
2022/08/27 04:02:30;;;;;;;5.18;3.25;;;;;;;19.32;92.08;100727.63;5003017;28;20054;-80
2022/08/27 04:04:57;;;;;;;6.57;2.53;;;;;;;19.29;92.03;100723.31;4990743;28;20074;-82
2022/08/27 04:07:25;;;;;;;4.63;2.15;;;;;;;19.26;91.96;100725.25;5024982;28;20045;-80
2022/08/27 04:09:53;;;;;;;4.93;2.75;;;;;;;19.25;92.19;100720.88;5013464;28;20058;-81
2022/08/27 04:12:21;;;;;;;6.38;2.55;;;;;;;19.21;92.05;100729.91;4998486;28;20039;-80
2022/08/27 04:14:48;;;;;;;7.75;2.47;;;;;;;19.17;91.64;100727.38;4970311;28;20154;-82
2022/08/27 04:17:16;;;;;;;7.18;3.35;;;;;;;19.17;91.91;100729.16;4977885;28;20085;-82
2022/08/27 04:19:47;;;;;;;10.30;2.72;;;;;;;19.19;91.67;100724.66;4987375;28;20054;-82
2022/08/27 04:22:13;;;;;;;9.68;3.55;;;;;;;19.19;91.61;100724.66;4990468;28;20453;-81
2022/08/27 04:24:41;;;;;;;3.97;2.20;;;;;;;19.18;91.52;100726.44;4995136;28;20551;-82
2022/08/27 04:27:09;;;;;;;6.43;2.67;;;;;;;19.15;91.87;100733.66;4989948;28;20500;-80
2022/08/27 04:29:44;;;;;;;8.35;2.63;;;;;;;19.11;91.84;100732.06;4975115;28;20051;-79
2022/08/27 04:32:11;;;;;;;6.50;3.00;;;;;;;19.11;91.92;100734.72;4992520;28;20465;-81
2022/08/27 04:34:41;;;;;;;4.63;2.53;;;;;;;19.10;91.98;100735.66;4972641;28;20839;-82
2022/08/27 04:37:09;;;;;;;8.00;3.47;;;;;;;19.11;91.66;100742.69;4985730;28;20132;-81
2022/08/27 04:39:37;;;;;;;5.60;2.50;;;;;;;19.11;91.85;100740.91;4987395;28;20046;-80
2022/08/27 04:42:04;;;;;;;4.28;1.90;;;;;;;19.14;91.41;100745.22;4983898;28;20118;-80
2022/08/27 04:44:33;;;;;;;8.25;2.58;;;;;;;19.11;91.23;100737.38;4986071;28;20043;-83
2022/08/27 04:47:04;;;;;;;7.03;2.80;;;;;;;19.10;91.30;100739.19;4984621;28;20118;-81
2022/08/27 04:49:32;;;;;;;11.30;3.03;;;;;;;19.09;91.44;100749.88;4986611;28;20061;-80
2022/08/27 04:51:59;;;;;;;7.65;3.35;;;;;;;19.07;91.72;100751.72;4957606;28;20747;-81
2022/08/27 04:54:28;;;;;;;5.30;2.40;;;;;;;19.06;91.77;100755.28;4999140;28;20038;-82
2022/08/27 04:56:57;;;;;;;5.07;3.25;;;;;;;19.07;91.19;100762.31;4993759;28;21134;-81
2022/08/27 04:59:26;;;;;;;5.55;2.47;;;;;;;19.07;91.31;100762.31;4974167;28;20046;-81
2022/08/27 05:01:54;;;;;;;13.25;3.65;;;;;;;19.07;91.04;100771.13;4983860;28;20054;-82
2022/08/27 05:04:21;;;;;;;9.10;3.30;;;;;;;19.09;91.21;100768.44;4952526;28;20046;-81
2022/08/27 05:06:50;;;;;;;10.20;3.08;;;;;;;19.07;91.58;100767.63;4969367;28;20061;-80
2022/08/27 05:09:18;;;;;;;7.60;2.67;;;;;;;19.07;91.55;100762.31;4984651;28;20049;-80
2022/08/27 05:11:46;;;;;;;17.98;4.15;;;;;;;19.08;91.10;100754.28;4983345;28;20045;-82
2022/08/27 05:14:15;;;;;;;10.70;3.20;;;;;;;18.99;91.68;100758.22;4986045;28;20649;-82
2022/08/27 05:16:43;;;;;;;8.05;2.92;;;;;;;18.98;92.05;100759.16;4968600;28;20152;-83
2022/08/27 05:19:13;;;;;;;9.95;3.17;;;;;;;18.99;91.84;100762.66;4983327;28;20047;-80
2022/08/27 05:21:50;;;;;;;9.73;3.25;;;;;;;19.00;91.92;100761.72;5000074;28;20049;-81
2022/08/27 05:24:18;;;;;;;11.18;3.83;;;;;;;18.99;92.19;100758.22;4989311;28;20104;-81
2022/08/27 05:26:46;;;;;;;12.77;4.68;;;;;;;19.02;92.18;100759.88;4984616;28;20421;-79
2022/08/27 05:29:13;;;;;;;5.40;4.00;;;;;;;19.05;91.78;100758.91;4968334;28;20038;-82
2022/08/27 05:31:41;;;;;;;10.27;4.25;;;;;;;19.06;91.76;100766.78;4968404;28;20046;-82
2022/08/27 05:34:10;;;;;;;7.45;4.00;;;;;;;19.06;91.91;100764.13;4967466;28;20055;-82
2022/08/27 05:36:39;;;;;;;6.93;3.88;;;;;;;19.07;91.64;100754.38;4981889;28;20066;-82
2022/08/27 05:39:09;;;;;;;7.00;3.97;;;;;;;19.13;91.44;100752.31;4966756;28;20129;-82
2022/08/27 05:41:44;;;;;;;7.72;3.55;;;;;;;19.18;91.11;100760.09;4965172;28;20868;-83
2022/08/27 05:44:14;;;;;;;7.68;3.40;;;;;;;19.18;90.92;100754.78;4960766;28;20054;-82
2022/08/27 05:46:46;;;;;;;10.95;3.10;;;;;;;19.20;90.62;100758.22;4986909;28;21446;-83
2022/08/27 05:49:13;;;;;;;6.45;3.20;;;;;;;19.21;90.71;100762.59;4989228;28;20557;-81
2022/08/27 05:51:40;;;;;;;5.70;3.00;;;;;;;19.22;90.44;100764.31;4987507;28;20145;-82
2022/08/27 05:54:17;;;;;;;13.20;3.33;;;;;;;19.22;90.45;100758.16;4984934;28;20451;-82
2022/08/27 05:56:48;;;;;;;12.00;3.72;;;;;;;19.26;90.06;100757.94;4985960;28;20108;-81
2022/08/27 06:01:59;;;;;;;5.88;2.75;;;;;;;19.25;89.67;100756.22;4984733;28;20038;-82
2022/08/27 06:04:26;;;;;;;3.70;2.50;;;;;;;19.25;89.54;100758.88;4985430;28;20054;-83
2022/08/27 06:07:01;;;;;;;7.18;2.92;;;;;;;19.32;89.18;100755.03;5002027;28;20046;-82
2022/08/27 06:09:29;;;;;;;8.13;2.97;;;;;;;19.36;88.39;100755.78;4975136;28;20046;-80
2022/08/27 06:12:01;;;;;;;5.05;2.75;;;;;;;19.34;88.36;100755.81;4991225;28;20053;-83
2022/08/27 06:14:28;;;;;;;7.15;3.33;;;;;;;19.31;88.51;100758.63;4993483;28;20054;-83
2022/08/27 06:16:55;;;;;;;8.60;2.72;;;;;;;19.30;88.33;100756.03;4991830;28;20042;-82
2022/08/27 06:19:22;;;;;;;5.85;2.45;;;;;;;19.27;88.18;100756.19;4988967;28;20121;-81
2022/08/27 06:21:49;;;;;;;6.35;2.28;;;;;;;19.28;88.48;100760.53;4967193;28;20034;-83
2022/08/27 06:24:16;;;;;;;8.25;3.30;;;;;;;19.33;88.11;100758.53;4982254;28;20042;-84
2022/08/27 06:26:45;;;;;;;9.93;3.78;;;;;;;19.36;88.01;100766.38;5000165;28;20097;-81
2022/08/27 06:29:13;;;;;;;5.00;2.13;;;;;;;19.36;87.53;100763.72;4999146;28;20046;-80
2022/08/27 06:31:41;;;;;;;8.35;2.53;;;;;;;19.30;88.14;100764.84;4988163;28;20050;-81
2022/08/27 06:34:11;;;;;;;8.07;2.72;;;;;;;19.38;88.05;100767.16;4993133;28;20046;-80
2022/08/27 06:36:42;;;;;;;4.82;2.20;;;;;;;19.34;87.79;100774.41;4994481;28;20050;-80
2022/08/27 06:39:14;;;;;;;3.47;1.90;;;;;;;19.36;87.78;100766.38;4986800;28;20046;-81
2022/08/27 06:41:43;;;;;;;5.65;1.95;;;;;;;19.39;87.38;100768.03;4987236;28;20050;-80
2022/08/27 06:44:10;;;;;;;7.85;2.47;;;;;;;19.34;87.81;100773.53;4969716;28;20050;-80
2022/08/27 06:46:38;;;;;;;5.72;2.08;;;;;;;19.36;87.66;100776.13;4985382;28;20897;-80
2022/08/27 06:49:06;;;;;;;5.55;2.35;;;;;;;19.37;87.55;100778.72;4983673;28;20105;-79
2022/08/27 06:51:36;;;;;;;6.93;2.25;;;;;;;19.32;87.80;100775.38;4997744;28;20068;-79
2022/08/27 06:54:08;;;;;;;11.15;3.10;;;;;;;19.33;88.10;100777.13;4985237;28;20149;-82
2022/08/27 06:56:36;;;;;;;6.87;1.97;;;;;;;19.36;87.51;100773.47;5000643;28;20057;-82
2022/08/27 06:59:07;;;;;;;4.65;2.22;;;;;;;19.39;87.61;100774.19;4985003;28;20945;-83
2022/08/27 07:01:38;;;;;;;8.45;3.65;;;;;;;19.38;87.76;100779.59;4985733;28;20046;-82
2022/08/27 07:04:09;;;;;;;15.30;3.05;;;;;;;19.43;87.63;100782.91;4967827;28;20478;-80
2022/08/27 07:06:42;;;;;;;6.68;1.98;;;;;;;19.46;87.37;100777.44;4987215;28;20042;-82
2022/08/27 07:09:10;;;;;;;5.85;2.58;;;;;;;19.51;86.91;100784.25;4955463;28;20089;-82
2022/08/27 07:11:38;;;;;;;6.95;1.90;;;;;;;19.58;86.76;100789.31;4976754;28;20050;-81
2022/08/27 07:14:08;;;;;;;5.35;2.08;;;;;;;19.62;86.27;100789.13;5000369;28;20687;-79
2022/08/27 07:16:37;;;;;;;4.75;2.13;;;;;;;19.64;86.09;100789.03;4971143;28;20105;-82
2022/08/27 07:19:05;;;;;;;7.60;3.65;;;;;;;19.60;86.16;100795.44;4975365;28;20046;-81
2022/08/27 07:21:34;;;;;;;3.78;2.10;;;;;;;19.63;85.91;100787.31;5002791;28;20049;-82
2022/08/27 07:24:04;;;;;;;7.45;1.95;;;;;;;19.57;86.10;100788.47;4999784;28;20054;-80
2022/08/27 07:26:37;;;;;;;7.50;2.65;;;;;;;19.57;86.05;100785.81;4987513;28;20051;-84
2022/08/27 07:29:13;;;;;;;6.75;2.40;;;;;;;19.63;85.76;100789.97;4990385;28;20167;-82
2022/08/27 07:31:43;;;;;;;6.70;2.15;;;;;;;19.71;85.19;100786.97;4988830;28;20042;-81
2022/08/27 07:34:11;;;;;;;8.80;2.95;;;;;;;19.86;84.12;100785.47;4988931;28;20042;-82
2022/08/27 07:36:39;;;;;;;9.52;2.47;;;;;;;19.99;82.92;100787.47;4985381;28;20624;-82
2022/08/27 07:39:15;;;;;;;7.15;2.13;;;;;;;20.03;82.73;100792.66;4985408;28;20050;-81
2022/08/27 07:44:29;;;;;;;2.17;1.80;;;;;;;20.31;81.24;100792.19;4985063;28;20046;-81
2022/08/27 07:46:57;;;;;;;6.20;2.30;;;;;;;20.39;80.11;100786.53;4985111;28;20043;-81
2022/08/27 07:49:25;;;;;;;6.20;1.83;;;;;;;20.45;79.39;100783.56;4968387;28;20160;-82
2022/08/27 07:51:52;;;;;;;6.75;1.67;;;;;;;20.55;78.80;100784.00;4982968;28;20097;-80
2022/08/27 07:54:22;;;;;;;9.55;2.78;;;;;;;20.65;78.00;100799.44;4965897;28;20054;-81
2022/08/27 07:56:49;;;;;;;6.30;1.83;;;;;;;20.68;77.92;100790.44;4966579;28;20046;-81
2022/08/27 07:59:16;;;;;;;8.95;2.13;;;;;;;20.69;77.80;100794.81;4982709;28;20034;-83
2022/08/27 08:01:43;;;;;;;4.88;2.25;;;;;;;20.65;77.62;100798.56;4985167;28;20597;-80
2022/08/27 08:04:10;;;;;;;6.30;2.15;;;;;;;20.58;77.95;100808.63;4983369;28;20056;-81
2022/08/27 08:06:39;;;;;;;7.85;2.13;;;;;;;20.48;78.22;100804.69;4984839;28;20046;-81
2022/08/27 08:09:08;;;;;;;4.10;1.63;;;;;;;20.42;78.57;100805.00;5002168;28;20042;-81
2022/08/27 08:11:34;;;;;;;3.72;1.52;;;;;;;20.39;78.50;100805.13;4984108;28;20089;-80
2022/08/27 08:14:03;;;;;;;5.38;1.63;;;;;;;20.39;78.45;100816.66;4971796;28;20460;-81
2022/08/27 08:16:31;;;;;;;1.80;1.40;;;;;;;20.33;78.86;100809.81;4955325;28;20053;-83
2022/08/27 08:18:59;;;;;;;9.45;1.83;;;;;;;20.35;78.41;100812.41;5004381;28;20100;-80
2022/08/27 08:21:26;;;;;;;5.10;1.92;;;;;;;20.28;78.69;100818.94;4988933;28;20121;-82
2022/08/27 08:23:54;;;;;;;5.90;2.28;;;;;;;20.21;79.38;100822.81;4975498;28;20046;-81
2022/08/27 08:26:22;;;;;;;5.38;2.03;;;;;;;20.19;79.43;100824.69;4971872;28;20054;-81
2022/08/27 08:28:49;;;;;;;9.50;2.60;;;;;;;20.13;79.70;100824.03;5003504;28;20037;-81
2022/08/27 08:31:16;;;;;;;9.93;2.03;;;;;;;20.12;79.67;100832.94;4970266;28;20806;-82
2022/08/27 08:33:42;;;;;;;5.60;2.08;;;;;;;20.01;80.02;100832.56;4988830;28;20473;-81
2022/08/27 08:36:13;;;;;;;10.35;3.10;;;;;;;19.98;80.47;100832.72;4990723;28;20062;-81
2022/08/27 08:38:40;;;;;;;4.03;1.60;;;;;;;19.90;80.50;100832.22;4974380;28;20043;-81
2022/08/27 08:41:22;;;;;;;9.65;2.53;;;;;;;19.87;80.97;100835.88;4988912;28;20054;-81
2022/08/27 08:43:50;;;;;;;3.33;1.52;;;;;;;19.82;81.30;100841.38;4988523;28;20043;-81
2022/08/27 08:46:37;;;;;;;7.60;2.00;;;;;;;19.82;81.54;100843.19;4987714;28;20048;-80
2022/08/27 08:49:30;;;;;;;8.05;1.70;;;;;;;19.84;81.50;100838.63;5004688;28;20026;-79
2022/08/27 08:52:14;;;;;;;6.55;2.05;;;;;;;19.88;81.17;100840.25;4976398;28;20100;-82
2022/08/27 08:54:43;;;;;;;7.25;1.85;;;;;;;19.89;81.17;100847.28;4988095;28;20057;-82
2022/08/27 08:57:35;;;;;;;6.43;1.52;;;;;;;19.86;81.49;100843.91;4970157;28;20054;-79
2022/08/27 09:00:10;;;;;;;7.10;2.05;;;;;;;19.83;81.32;100844.91;4989404;28;20062;-80
2022/08/27 09:02:38;;;;;;;5.88;2.17;;;;;;;19.88;81.42;100844.69;4984939;28;20039;-83
2022/08/27 09:05:07;;;;;;;6.72;1.85;;;;;;;19.94;81.05;100850.59;4998565;28;20133;-81
2022/08/27 09:07:44;;;;;;;7.03;2.05;;;;;;;19.99;80.99;100853.03;4988746;28;20042;-82
2022/08/27 09:10:39;;;;;;;10.00;2.55;;;;;;;20.04;80.36;100847.50;4985812;28;20057;-84
2022/08/27 09:13:22;;;;;;;7.70;2.50;;;;;;;19.97;80.27;100852.25;5002603;28;20130;-82
2022/08/27 09:15:58;;;;;;;4.45;2.42;;;;;;;19.93;80.79;100851.53;5000769;28;20042;-83
2022/08/27 09:18:27;;;;;;;5.95;2.58;;;;;;;19.86;80.83;100855.38;4976177;28;20077;-81
2022/08/27 09:21:39;;;;;;;8.70;1.75;;;;;;;19.81;81.34;100852.03;4963268;28;20054;-82
2022/08/27 09:24:13;;;;;;;6.25;2.17;;;;;;;19.82;81.25;100848.50;4985199;28;20112;-82
2022/08/27 09:26:44;;;;;;;7.85;1.92;;;;;;;19.87;80.90;100851.81;4982181;28;20054;-84
2022/08/27 09:29:19;;;;;;;4.90;2.42;;;;;;;19.89;80.61;100849.06;4980112;28;20057;-83
2022/08/27 09:32:07;;;;;;;12.27;2.80;;;;;;;19.90;80.07;100856.13;4984844;28;20038;-82
2022/08/27 09:34:41;;;;;;;4.38;1.85;;;;;;;19.97;80.25;100857.56;4967164;28;20042;-81
2022/08/27 09:37:21;;;;;;;3.42;1.88;;;;;;;20.16;79.56;100853.13;4982975;28;20081;-82
2022/08/27 09:39:59;;;;;;;5.63;2.35;;;;;;;20.48;77.52;100856.09;4969379;28;21151;-81
2022/08/27 09:42:51;;;;;;;5.95;2.35;;;;;;;20.69;76.26;100849.81;4951700;28;20136;-83
2022/08/27 09:45:28;;;;;;;7.65;1.95;;;;;;;20.82;75.23;100846.53;4990509;28;20050;-82
2022/08/27 09:48:16;;;;;;;7.63;2.13;;;;;;;20.93;74.27;100850.47;4973657;28;20034;-84
2022/08/27 09:50:50;;;;;;;8.02;2.70;;;;;;;21.11;74.04;100848.69;4983238;28;20125;-81
2022/08/27 09:53:25;;;;;;;6.65;1.90;;;;;;;21.29;72.62;100846.91;4970554;28;20046;-84
2022/08/27 09:56:02;;;;;;;6.65;2.50;;;;;;;21.34;72.90;100844.88;5002202;28;20117;-84
2022/08/27 09:58:45;;;;;;;5.45;1.95;;;;;;;21.51;71.93;100843.13;4985746;28;20137;-83
2022/08/27 10:01:27;;;;;;;6.28;2.33;;;;;;;21.59;71.40;100846.25;4969941;28;20050;-84
2022/08/27 10:04:12;;;;;;;4.88;1.85;;;;;;;21.78;70.75;100838.19;4969101;28;20981;-83
2022/08/27 10:06:50;;;;;;;3.75;2.10;;;;;;;21.84;69.99;100839.63;4984956;28;20080;-82
2022/08/27 10:09:33;;;;;;;5.07;2.03;;;;;;;21.86;69.45;100835.09;4986172;28;20134;-82
2022/08/27 10:12:41;;;;;;;6.63;2.40;;;;;;;21.88;68.89;100841.22;4984870;28;20058;-82
2022/08/27 10:15:13;;;;;;;4.53;1.85;;;;;;;22.01;67.79;100839.63;4987873;28;20342;-82
2022/08/27 10:18:13;;;;;;;6.97;2.05;;;;;;;22.11;67.00;100837.28;4971532;28;20054;-83
2022/08/27 10:21:04;;;;;;;5.30;2.33;;;;;;;22.27;67.19;100843.53;4988106;28;20073;-83
2022/08/27 10:23:51;;;;;;;8.55;2.33;;;;;;;22.59;65.52;100845.38;4985618;28;20541;-81
2022/08/27 10:26:27;;;;;;;8.50;1.90;;;;;;;22.73;64.66;100841.91;4988561;28;20056;-83
2022/08/27 10:29:18;;;;;;;3.83;1.70;;;;;;;22.89;63.58;100845.44;4971429;28;20050;-82
2022/08/27 10:32:46;;;;;;;4.43;2.10;;;;;;;23.28;61.07;100837.88;4984621;28;20053;-84
2022/08/27 10:35:19;;;;;;;5.38;1.90;;;;;;;23.33;61.74;100848.28;4975234;28;20089;-80
2022/08/27 10:38:40;;;;;;;7.45;2.20;;;;;;;23.46;61.14;100841.25;4988338;28;20050;-83
2022/08/27 10:41:27;;;;;;;4.28;1.50;;;;;;;23.51;60.47;100838.31;4921201;29;20127;-82
2022/08/27 10:44:34;;;;;;;7.32;2.20;;;;;;;23.61;59.54;100843.00;4910729;29;20660;-82
2022/08/27 10:48:08;;;;;;;4.45;2.20;;;;;;;23.68;59.35;100837.28;4931374;29;20055;-82
2022/08/27 10:50:54;;;;;;;4.30;1.88;;;;;;;24.02;58.61;100833.41;4904522;29;20576;-81
2022/08/27 10:53:57;;;;;;;4.07;1.60;;;;;;;24.48;56.60;100831.44;4978380;28;20057;-80
2022/08/27 10:56:37;;;;;;;4.93;1.60;;;;;;;24.87;54.55;100836.00;4998845;28;20047;-81
2022/08/27 10:59:25;;;;;;;2.30;1.52;;;;;;;25.34;53.41;100831.06;4985144;28;20046;-84
2022/08/27 11:02:18;;;;;;;4.88;1.45;;;;;;;25.99;51.92;100823.94;4988207;28;20043;-84
2022/08/27 11:04:49;;;;;;;;;;;;;;;26.30;49.89;100824.44;4968228;28;20146;-81
2022/08/27 11:07:29;;;;;;;7.95;2.22;;;;;;;26.83;48.04;100834.03;4983867;28;19960;-82
2022/08/27 11:10:10;;;;;;;7.28;1.50;;;;;;;28.18;46.47;100824.56;4985998;28;20057;-84
2022/08/27 11:12:43;;;;;;;2.88;1.40;;;;;;;29.16;44.49;100817.41;4967290;28;20042;-84
2022/08/27 11:15:24;;;;;;;4.70;1.42;;;;;;;29.47;41.74;100821.06;4990868;28;20050;-85
2022/08/27 11:18:00;;;;;;;1.98;1.30;;;;;;;30.15;41.15;100827.78;4956400;28;20046;-84
2022/08/27 11:20:49;;;;;;;3.47;1.15;;;;;;;30.61;39.39;100823.66;5003084;28;20031;-82
2022/08/27 11:23:23;;;;;;;3.25;1.13;;;;;;;30.26;39.93;100829.50;4981023;28;20466;-86
2022/08/27 11:26:02;;;;;;;4.75;1.80;;;;;;;29.48;40.93;100827.31;4970361;28;20074;-82
2022/08/27 11:28:52;;;;;;;7.88;2.15;;;;;;;29.10;41.24;100826.00;4953016;28;20054;-85
2022/08/27 11:31:49;;;;;;;3.35;2.03;;;;;;;28.70;42.07;100832.94;5002667;28;20047;-84
2022/08/27 11:34:39;;;;;;;5.35;1.58;;;;;;;28.57;42.52;100830.38;4984946;28;20042;-85
2022/08/27 11:37:39;;;;;;;2.40;1.48;;;;;;;28.78;41.90;100827.75;4981415;28;20050;-82
2022/08/27 11:40:28;;;;;;;2.75;1.33;;;;;;;29.04;40.84;100828.25;4989087;28;20039;-84
2022/08/27 11:43:02;;;;;;;7.90;1.65;;;;;;;29.40;41.33;100829.81;4985902;28;20050;-82
2022/08/27 11:45:38;;;;;;;2.92;1.40;;;;;;;29.12;41.35;100830.28;5002095;28;20037;-83
2022/08/27 11:48:29;;;;;;;5.25;1.48;;;;;;;28.59;41.66;100832.91;4971256;28;20126;-82
2022/08/27 11:51:31;;;;;;;5.80;1.45;;;;;;;28.25;42.87;100841.91;4964920;28;20065;-85
2022/08/27 11:54:02;;;;;;;6.17;1.57;;;;;;;27.45;44.37;100840.16;4994823;28;20052;-83
2022/08/27 11:56:35;;;;;;;5.25;1.80;;;;;;;26.90;45.39;100841.50;4987575;28;20043;-83
2022/08/27 11:59:30;;;;;;;6.03;1.98;;;;;;;26.31;46.85;100842.25;4990061;28;20057;-82